createdAt,value
2023-12-05T00:00:29.331Z,6.75
2023-12-05T00:02:56.249Z,6.88
2023-12-05T00:05:22.858Z,7.43
2023-12-05T00:07:49.502Z,7.07
2023-12-05T00:10:16.101Z,7.18
2023-12-05T00:12:42.787Z,7.60
2023-12-05T00:15:09.778Z,7.32
2023-12-05T00:17:36.458Z,6.82
2023-12-05T00:20:04.238Z,7.22
2023-12-05T00:22:30.976Z,7.05
2023-12-05T00:24:57.577Z,6.70
2023-12-05T00:27:24.293Z,7.22
2023-12-05T00:29:50.906Z,7.50
2023-12-05T00:32:17.558Z,7.43
2023-12-05T00:34:47.036Z,7.55
2023-12-05T00:37:13.725Z,7.80
2023-12-05T00:39:40.932Z,7.35
2023-12-05T00:42:07.542Z,7.68
2023-12-05T00:44:34.110Z,6.85
2023-12-05T00:47:04.467Z,7.43
2023-12-05T00:49:31.207Z,8.02
2023-12-05T00:51:57.952Z,7.72
2023-12-05T00:54:24.591Z,7.90
2023-12-05T00:56:51.190Z,7.85
2023-12-05T00:59:18.306Z,7.63
2023-12-05T01:01:44.971Z,8.40
2023-12-05T01:04:11.674Z,8.45
2023-12-05T01:06:38.398Z,8.10
2023-12-05T01:09:07.643Z,8.40
2023-12-05T01:11:34.362Z,8.60
2023-12-05T01:14:00.935Z,8.05
2023-12-05T01:16:27.476Z,8.02
2023-12-05T01:18:54.211Z,8.18
2023-12-05T01:21:20.869Z,8.70
2023-12-05T01:23:47.425Z,7.75
2023-12-05T01:26:13.953Z,8.77
2023-12-05T01:28:40.474Z,8.05
2023-12-05T01:31:07.327Z,7.90
2023-12-05T01:33:33.914Z,7.20
2023-12-05T01:36:00.479Z,7.40
2023-12-05T01:38:27.007Z,8.50
2023-12-05T01:40:53.522Z,8.60
2023-12-05T01:43:20.026Z,8.30
2023-12-05T01:45:46.713Z,7.97
2023-12-05T01:48:13.729Z,8.13
2023-12-05T01:50:40.445Z,8.27
2023-12-05T01:53:07.704Z,7.60
2023-12-05T01:55:34.562Z,8.10
2023-12-05T01:58:01.341Z,8.32
2023-12-05T02:00:28.286Z,8.73
2023-12-05T02:02:57.439Z,7.90
2023-12-05T02:05:24.392Z,8.27
2023-12-05T02:07:51.433Z,8.45
2023-12-05T02:10:18.235Z,8.55
2023-12-05T02:12:44.938Z,8.45
2023-12-05T02:15:11.732Z,8.02
2023-12-05T02:17:47.154Z,7.28
2023-12-05T02:20:21.579Z,7.70
2023-12-05T02:23:03.183Z,8.20
2023-12-05T02:25:38.649Z,8.45
2023-12-05T02:28:06.301Z,8.38
2023-12-05T02:30:33.526Z,8.35
2023-12-05T02:33:00.073Z,8.60
2023-12-05T02:35:26.839Z,8.50
2023-12-05T02:38:01.948Z,8.85
2023-12-05T02:40:39.968Z,8.13
2023-12-05T02:43:24.029Z,8.55
2023-12-05T02:46:08.149Z,8.60
2023-12-05T02:48:37.460Z,8.25
2023-12-05T02:51:04.474Z,8.85
2023-12-05T02:53:30.988Z,7.70
2023-12-05T02:55:57.701Z,7.85
2023-12-05T02:58:24.226Z,8.40
2023-12-05T03:00:50.829Z,8.07
2023-12-05T03:03:17.498Z,8.23
2023-12-05T03:05:44.121Z,7.90
2023-12-05T03:08:10.712Z,8.75
2023-12-05T03:10:37.506Z,8.10
2023-12-05T03:13:04.070Z,8.68
2023-12-05T03:15:30.632Z,8.02
2023-12-05T03:17:57.405Z,8.45
2023-12-05T03:20:24.022Z,8.13
2023-12-05T03:22:50.537Z,8.93
2023-12-05T03:25:17.345Z,8.48
2023-12-05T03:27:43.871Z,8.15
2023-12-05T03:30:11.037Z,8.27
2023-12-05T03:32:37.576Z,9.07
2023-12-05T03:35:04.896Z,8.40
2023-12-05T03:37:31.420Z,8.18
2023-12-05T03:39:57.972Z,8.27
2023-12-05T03:42:24.505Z,8.57
2023-12-05T03:44:51.115Z,8.30
2023-12-05T03:47:17.620Z,8.73
2023-12-05T03:49:44.164Z,8.15
2023-12-05T03:52:10.672Z,8.55
2023-12-05T03:54:37.199Z,8.25
2023-12-05T03:57:03.899Z,8.23
2023-12-05T03:59:30.501Z,8.90
2023-12-05T04:01:57.085Z,8.27
2023-12-05T04:04:24.162Z,8.15
2023-12-05T04:06:50.760Z,8.52
2023-12-05T04:09:17.386Z,8.15
2023-12-05T04:11:43.932Z,8.88
2023-12-05T04:14:10.430Z,8.70
2023-12-05T04:16:36.923Z,8.50
2023-12-05T04:19:03.561Z,9.18
2023-12-05T04:21:30.296Z,9.00
2023-12-05T04:23:56.878Z,8.88
2023-12-05T04:26:24.444Z,8.90
2023-12-05T04:28:51.196Z,8.43
2023-12-05T04:31:17.702Z,8.48
2023-12-05T04:33:44.561Z,9.25
2023-12-05T04:36:11.748Z,8.52
2023-12-05T04:38:39.091Z,8.85
2023-12-05T04:41:05.923Z,9.50
2023-12-05T04:43:33.320Z,8.65
2023-12-05T04:46:00.022Z,7.90
2023-12-05T04:48:26.905Z,8.40
2023-12-05T04:50:53.541Z,9.45
2023-12-05T04:53:20.172Z,8.88
2023-12-05T04:55:46.786Z,8.82
2023-12-05T04:58:13.290Z,9.25
2023-12-05T05:00:39.893Z,9.20
2023-12-05T05:03:06.648Z,8.88
2023-12-05T05:05:33.313Z,9.15
2023-12-05T05:08:00.361Z,8.85
2023-12-05T05:10:27.180Z,8.90
2023-12-05T05:12:53.765Z,8.98
2023-12-05T05:15:20.453Z,8.80
2023-12-05T05:17:47.085Z,8.38
2023-12-05T05:20:14.639Z,8.65
2023-12-05T05:22:41.183Z,9.02
2023-12-05T05:25:08.127Z,8.48
2023-12-05T05:27:34.751Z,8.77
2023-12-05T05:30:01.312Z,8.45
2023-12-05T05:32:27.989Z,8.85
2023-12-05T05:34:54.547Z,8.15
2023-12-05T05:37:21.907Z,7.78
2023-12-05T05:39:49.135Z,8.85
2023-12-05T05:42:15.858Z,8.38
2023-12-05T05:44:42.428Z,8.38
2023-12-05T05:47:08.934Z,8.13
2023-12-05T05:49:35.757Z,8.55
2023-12-05T05:52:02.361Z,7.78
2023-12-05T05:54:29.084Z,8.52
2023-12-05T05:56:55.668Z,8.27
2023-12-05T05:59:22.367Z,8.15
2023-12-05T06:01:49.327Z,8.60
2023-12-05T06:04:16.074Z,8.80
2023-12-05T06:06:42.656Z,8.27
2023-12-05T06:09:09.260Z,8.13
2023-12-05T06:11:35.786Z,8.55
2023-12-05T06:14:02.313Z,9.02
2023-12-05T06:16:29.169Z,8.45
2023-12-05T06:18:55.913Z,9.13
2023-12-05T06:21:22.578Z,9.55
2023-12-05T06:23:49.149Z,10.23
2023-12-05T06:26:15.755Z,10.18
2023-12-05T06:28:42.249Z,10.05
2023-12-05T06:31:09.540Z,10.35
2023-12-05T06:33:36.414Z,10.70
2023-12-05T06:36:03.569Z,10.50
2023-12-05T06:38:30.112Z,10.90
2023-12-05T06:40:56.649Z,11.02
2023-12-05T06:43:23.164Z,10.77
2023-12-05T06:45:49.730Z,11.10
2023-12-05T06:48:16.982Z,11.63
2023-12-05T06:50:46.648Z,12.18
2023-12-05T06:53:13.847Z,11.63
2023-12-05T06:55:41.400Z,12.57
2023-12-05T06:58:08.104Z,12.95
2023-12-05T07:00:35.430Z,12.55
2023-12-05T07:03:02.217Z,11.88
2023-12-05T07:05:28.983Z,12.23
2023-12-05T07:07:55.626Z,12.63
2023-12-05T07:10:23.743Z,13.32
2023-12-05T07:12:50.545Z,12.68
2023-12-05T07:15:17.144Z,12.48
2023-12-05T07:17:43.783Z,11.85
2023-12-05T07:20:10.577Z,12.00
2023-12-05T07:22:37.284Z,11.80
2023-12-05T07:25:04.065Z,11.82
2023-12-05T07:27:30.605Z,11.85
2023-12-05T07:29:57.134Z,11.85
2023-12-05T07:32:24.314Z,10.38
2023-12-05T07:34:51.290Z,11.10
2023-12-05T07:37:18.029Z,10.60
2023-12-05T07:39:44.991Z,10.45
2023-12-05T07:42:11.526Z,11.18
2023-12-05T07:44:38.565Z,10.80
2023-12-05T07:47:08.581Z,9.55
2023-12-05T07:49:35.533Z,10.02
2023-12-05T07:52:02.515Z,9.88
2023-12-05T07:54:29.134Z,10.07
2023-12-05T07:56:56.190Z,10.30
2023-12-05T07:59:22.943Z,9.80
2023-12-05T08:01:49.508Z,10.60
2023-12-05T08:04:16.454Z,9.55
2023-12-05T08:06:43.172Z,9.57
2023-12-05T08:09:09.789Z,10.30
2023-12-05T08:11:37.013Z,10.15
2023-12-05T08:14:03.621Z,10.35
2023-12-05T08:16:30.275Z,9.43
2023-12-05T08:18:56.939Z,10.07
2023-12-05T08:21:24.223Z,10.02
2023-12-05T08:23:50.941Z,10.57
2023-12-05T08:26:17.538Z,9.63
2023-12-05T08:28:44.193Z,9.98
2023-12-05T08:31:10.715Z,9.82
2023-12-05T08:33:37.391Z,9.90
2023-12-05T08:36:04.338Z,9.38
2023-12-05T08:38:30.892Z,10.20
2023-12-05T08:40:58.056Z,10.77
2023-12-05T08:43:24.599Z,10.38
2023-12-05T08:45:51.982Z,9.35
2023-12-05T08:48:18.765Z,9.60
2023-12-05T08:50:45.450Z,9.75
2023-12-05T08:53:12.062Z,9.15
2023-12-05T08:55:40.803Z,9.32
2023-12-05T08:58:07.670Z,9.18
2023-12-05T09:00:34.217Z,10.27
2023-12-05T09:03:01.314Z,9.65
2023-12-05T09:05:28.071Z,10.30
2023-12-05T09:07:54.826Z,9.20
2023-12-05T09:10:21.467Z,9.20
2023-12-05T09:12:48.169Z,8.88
2023-12-05T09:15:14.800Z,8.93
2023-12-05T09:17:41.530Z,9.45
2023-12-05T09:20:08.595Z,9.35
2023-12-05T09:22:35.138Z,8.57
2023-12-05T09:25:01.691Z,9.35
2023-12-05T09:27:28.219Z,8.20
2023-12-05T09:29:55.469Z,9.55
2023-12-05T09:32:22.072Z,8.88
2023-12-05T09:34:48.711Z,8.75
2023-12-05T09:37:15.578Z,9.35
2023-12-05T09:39:42.484Z,8.73
2023-12-05T09:42:14.673Z,8.88
2023-12-05T09:44:48.019Z,8.68
2023-12-05T09:47:22.263Z,8.30
2023-12-05T09:49:49.872Z,9.07
2023-12-05T09:52:17.087Z,9.02
2023-12-05T09:54:45.045Z,8.23
2023-12-05T09:57:15.475Z,8.38
2023-12-05T09:59:42.480Z,8.82
2023-12-05T10:02:10.226Z,8.73
2023-12-05T10:04:43.062Z,8.48
2023-12-05T10:07:12.896Z,8.07
2023-12-05T10:09:43.784Z,7.50
2023-12-05T10:12:12.013Z,7.80
2023-12-05T10:14:39.432Z,7.82
2023-12-05T10:17:07.128Z,8.15
2023-12-05T10:19:35.120Z,8.38
2023-12-05T10:22:03.546Z,8.45
2023-12-05T10:24:46.984Z,8.82
2023-12-05T10:27:13.667Z,8.52
2023-12-05T10:29:43.973Z,7.95
2023-12-05T10:32:14.203Z,8.00
2023-12-05T10:34:46.954Z,8.05
2023-12-05T10:37:13.596Z,7.68
2023-12-05T10:39:40.193Z,8.85
2023-12-05T10:42:09.175Z,8.23
2023-12-05T10:44:39.889Z,8.57
2023-12-05T10:47:12.112Z,7.97
2023-12-05T10:49:41.597Z,8.20
2023-12-05T10:52:08.973Z,8.52
2023-12-05T10:54:35.487Z,8.77
2023-12-05T10:57:02.077Z,8.40
2023-12-05T10:59:30.087Z,8.68
2023-12-05T11:01:57.888Z,8.25
2023-12-05T11:04:27.997Z,8.25
2023-12-05T11:06:55.018Z,8.60
2023-12-05T11:09:24.219Z,8.80
2023-12-05T11:11:53.675Z,8.25
2023-12-05T11:14:22.392Z,8.50
2023-12-05T11:16:55.023Z,8.85
2023-12-05T11:19:45.630Z,8.23
2023-12-05T11:22:31.238Z,8.95
2023-12-05T11:25:10.220Z,9.43
2023-12-05T11:27:48.782Z,8.85
2023-12-05T11:30:18.341Z,8.10
2023-12-05T11:33:43.349Z,7.80
2023-12-05T11:36:26.603Z,8.90
2023-12-05T11:38:55.823Z,8.70
2023-12-05T11:41:22.528Z,8.38
2023-12-05T11:44:10.966Z,8.35
2023-12-05T11:46:37.498Z,9.43
2023-12-05T11:49:04.464Z,9.77
2023-12-05T11:51:32.073Z,9.32
2023-12-05T11:54:01.814Z,9.15
2023-12-05T11:56:31.639Z,10.18
2023-12-05T11:59:27.736Z,8.70
2023-12-05T12:01:54.268Z,9.43
2023-12-05T12:04:22.787Z,8.70
2023-12-05T12:06:50.953Z,8.73
2023-12-05T12:09:17.758Z,10.18
2023-12-05T12:11:44.689Z,9.27
2023-12-05T12:14:16.097Z,9.43
2023-12-05T12:16:42.847Z,10.23
2023-12-05T12:19:12.922Z,9.48
2023-12-05T12:21:40.024Z,8.95
2023-12-05T12:24:08.555Z,8.80
2023-12-05T12:26:35.586Z,8.15
2023-12-05T12:29:20.959Z,7.20
2023-12-05T12:31:47.536Z,10.27
2023-12-05T12:34:26.248Z,9.00
2023-12-05T12:36:53.667Z,7.78
2023-12-05T12:39:21.325Z,8.05
2023-12-05T12:41:48.991Z,8.05
2023-12-05T12:44:17.581Z,8.15
2023-12-05T12:46:44.404Z,7.75
2023-12-05T12:49:11.376Z,7.72
2023-12-05T12:51:42.110Z,8.80
2023-12-05T12:54:09.684Z,8.98
2023-12-05T12:56:39.181Z,10.88
2023-12-05T12:59:08.569Z,9.27
2023-12-05T13:01:39.628Z,8.60
2023-12-05T13:04:13.828Z,8.88
2023-12-05T13:06:43.253Z,9.63
2023-12-05T13:09:16.284Z,8.82
2023-12-05T13:11:43.741Z,7.78
2023-12-05T13:14:18.397Z,7.30
2023-12-05T13:16:45.846Z,7.17
2023-12-05T13:19:31.034Z,6.35
2023-12-05T13:21:58.136Z,7.13
2023-12-05T13:24:24.812Z,6.35
2023-12-05T13:26:52.919Z,5.53
2023-12-05T13:29:20.251Z,6.13
2023-12-05T13:31:46.958Z,5.85
2023-12-05T13:34:13.708Z,5.72
2023-12-05T13:36:40.326Z,5.40
2023-12-05T13:39:11.692Z,5.55
2023-12-05T13:41:39.781Z,5.53
2023-12-05T13:44:06.438Z,5.93
2023-12-05T13:46:33.030Z,5.40
2023-12-05T13:49:05.517Z,5.80
2023-12-05T13:51:33.073Z,4.97
2023-12-05T13:54:01.019Z,5.32
2023-12-05T13:56:28.397Z,5.65
2023-12-05T13:58:56.198Z,5.03
2023-12-05T14:01:22.900Z,4.85
2023-12-05T14:03:49.668Z,15.02
2023-12-05T14:06:16.407Z,10.07
2023-12-05T14:08:43.014Z,7.20
2023-12-05T14:11:09.837Z,6.70
2023-12-05T14:13:36.462Z,5.55
2023-12-05T14:16:04.277Z,5.55
2023-12-05T14:18:31.285Z,5.65
2023-12-05T14:21:00.822Z,4.93
2023-12-05T14:23:27.773Z,5.35
2023-12-05T14:25:54.300Z,5.35
2023-12-05T14:28:20.816Z,5.22
2023-12-05T14:30:47.418Z,5.00
2023-12-05T14:33:14.645Z,4.85
2023-12-05T14:35:41.413Z,5.05
2023-12-05T14:38:10.348Z,4.65
2023-12-05T14:40:36.854Z,5.07
2023-12-05T14:43:03.576Z,4.95
2023-12-05T14:45:30.286Z,5.22
2023-12-05T14:47:56.895Z,5.05
2023-12-05T14:50:23.657Z,4.85
2023-12-05T14:52:50.961Z,5.25
2023-12-05T14:55:17.641Z,4.90
2023-12-05T14:57:44.258Z,5.00
2023-12-05T15:00:11.285Z,4.70
2023-12-05T15:02:39.824Z,4.45
2023-12-05T15:05:08.004Z,4.97
2023-12-05T15:07:34.615Z,5.10
2023-12-05T15:10:01.221Z,4.75
2023-12-05T15:12:28.682Z,5.03
2023-12-05T15:14:55.340Z,4.85
2023-12-05T15:17:22.159Z,5.07
2023-12-05T15:20:17.900Z,4.55
2023-12-05T15:22:35.206Z,4.75
2023-12-05T15:25:01.760Z,4.97
2023-12-05T15:27:28.435Z,4.53
2023-12-05T15:29:57.214Z,4.50
2023-12-05T15:32:27.746Z,4.38
2023-12-05T15:34:54.606Z,4.70
2023-12-05T15:37:21.581Z,4.70
2023-12-05T15:39:57.595Z,4.38
2023-12-05T15:44:50.852Z,4.13
2023-12-05T15:47:17.590Z,3.75
2023-12-05T15:49:44.266Z,4.65
2023-12-05T15:52:11.063Z,4.10
2023-12-05T15:54:38.251Z,4.68
2023-12-05T15:57:05.457Z,4.05
2023-12-05T15:59:32.017Z,4.30
2023-12-05T16:01:58.783Z,4.70
2023-12-05T16:04:25.430Z,4.07
2023-12-05T16:06:52.021Z,4.10
2023-12-05T16:09:21.789Z,4.07
2023-12-05T16:11:52.418Z,3.97
2023-12-05T16:14:19.668Z,4.03
2023-12-05T16:16:46.214Z,4.55
2023-12-05T16:19:13.814Z,4.10
2023-12-05T16:21:40.754Z,3.90
2023-12-05T16:24:07.523Z,4.15
2023-12-05T16:26:38.138Z,3.90
2023-12-05T16:29:05.344Z,3.88
2023-12-05T16:31:31.908Z,4.10
2023-12-05T16:33:59.076Z,4.18
2023-12-05T16:36:28.622Z,4.20
2023-12-05T16:38:56.677Z,3.90
2023-12-05T16:41:25.183Z,3.78
2023-12-05T16:43:52.026Z,3.95
2023-12-05T16:46:19.275Z,3.78
2023-12-05T16:48:46.038Z,3.88
2023-12-05T16:51:12.600Z,3.78
2023-12-05T16:53:39.206Z,3.90
2023-12-05T16:56:06.218Z,4.65
2023-12-05T16:58:32.891Z,7.05
2023-12-05T17:00:59.467Z,7.55
2023-12-05T17:03:26.187Z,7.90
2023-12-05T17:05:53.523Z,18.92
2023-12-05T17:08:20.140Z,33.65
2023-12-05T17:10:47.092Z,28.10
2023-12-05T17:13:13.685Z,21.17
2023-12-05T17:15:41.648Z,35.40
2023-12-05T17:18:08.296Z,19.17
2023-12-05T17:20:35.258Z,22.58
2023-12-05T17:23:01.893Z,21.27
2023-12-05T17:25:28.481Z,13.93
2023-12-05T17:27:55.132Z,12.25
2023-12-05T17:30:21.901Z,17.08
2023-12-05T17:32:48.479Z,18.40
2023-12-05T17:35:15.106Z,16.38
2023-12-05T17:37:42.538Z,13.23
2023-12-05T17:40:09.393Z,11.27
2023-12-05T17:42:36.054Z,11.30
2023-12-05T17:45:02.756Z,11.00
2023-12-05T17:47:29.427Z,11.48
2023-12-05T17:49:56.200Z,10.65
2023-12-05T17:52:23.768Z,10.65
2023-12-05T17:54:50.606Z,11.77
2023-12-05T17:57:18.253Z,10.88
2023-12-05T17:59:45.905Z,11.00
2023-12-05T18:02:13.492Z,10.82
2023-12-05T18:04:41.566Z,11.52
2023-12-05T18:07:50.721Z,13.57
2023-12-05T18:09:54.787Z,12.50
2023-12-05T18:12:22.773Z,12.57
2023-12-05T18:14:49.861Z,13.18
2023-12-05T18:17:16.917Z,12.68
2023-12-05T18:19:48.336Z,12.80
2023-12-05T18:22:16.105Z,12.85
2023-12-05T18:24:42.858Z,12.70
2023-12-05T18:27:10.146Z,13.60
2023-12-05T18:29:37.776Z,13.70
2023-12-05T18:32:04.886Z,13.73
2023-12-05T18:34:31.540Z,14.02
2023-12-05T18:36:58.442Z,14.20
2023-12-05T18:39:25.301Z,13.65
2023-12-05T18:41:54.394Z,14.25
2023-12-05T18:44:21.340Z,14.43
2023-12-05T18:46:47.836Z,14.88
2023-12-05T18:49:14.605Z,15.55
2023-12-05T18:51:41.456Z,15.00
2023-12-05T18:54:08.050Z,14.32
2023-12-05T18:56:34.558Z,13.52
2023-12-05T18:59:01.088Z,12.95
2023-12-05T19:01:29.314Z,11.90
2023-12-05T19:03:56.271Z,13.02
2023-12-05T19:06:22.871Z,12.60
2023-12-05T19:08:49.436Z,11.38
2023-12-05T19:11:16.092Z,11.00
2023-12-05T19:13:42.881Z,10.75
2023-12-05T19:16:09.479Z,10.65
2023-12-05T19:18:36.134Z,10.98
2023-12-05T19:21:07.352Z,10.68
2023-12-05T19:23:33.936Z,9.70
2023-12-05T19:26:00.666Z,10.05
2023-12-05T19:28:27.641Z,9.48
2023-12-05T19:30:54.621Z,9.05
2023-12-05T19:33:22.330Z,9.60
2023-12-05T19:35:49.339Z,9.02
2023-12-05T19:38:16.157Z,9.02
2023-12-05T19:40:42.869Z,8.88
2023-12-05T19:43:10.188Z,9.25
2023-12-05T19:45:36.764Z,9.25
2023-12-05T19:48:03.808Z,8.93
2023-12-05T19:50:30.456Z,8.00
2023-12-05T19:52:58.143Z,8.00
2023-12-05T19:55:24.925Z,8.45
2023-12-05T19:57:51.558Z,8.30
2023-12-05T20:00:18.352Z,7.85
2023-12-05T20:02:44.861Z,8.05
2023-12-05T20:05:11.392Z,7.63
2023-12-05T20:07:38.101Z,7.95
2023-12-05T20:10:05.032Z,7.82
2023-12-05T20:12:31.745Z,7.97
2023-12-05T20:14:58.346Z,7.88
2023-12-05T20:17:28.828Z,8.10
2023-12-05T20:19:55.912Z,9.00
2023-12-05T20:22:24.050Z,8.50
2023-12-05T20:24:50.620Z,8.70
2023-12-05T20:27:17.544Z,9.18
2023-12-05T20:29:44.259Z,9.45
2023-12-05T20:32:10.827Z,9.73
2023-12-05T20:34:37.471Z,10.60
2023-12-05T20:37:04.293Z,11.10
2023-12-05T20:39:30.997Z,11.13
2023-12-05T20:41:58.058Z,11.30
2023-12-05T20:44:24.603Z,11.85
2023-12-05T20:46:51.233Z,13.60
2023-12-05T20:49:18.016Z,13.95
2023-12-05T20:51:44.780Z,13.95
2023-12-05T20:54:11.753Z,13.13
2023-12-05T20:56:38.356Z,14.88
2023-12-05T20:59:04.857Z,14.65
2023-12-05T21:01:31.491Z,15.32
2023-12-05T21:03:58.151Z,15.20
2023-12-05T21:06:24.719Z,14.80
2023-12-05T21:09:10.803Z,14.80
2023-12-05T21:11:38.011Z,14.50
2023-12-05T21:14:04.521Z,15.23
2023-12-05T21:16:31.081Z,13.93
2023-12-05T21:18:57.764Z,14.32
2023-12-05T21:21:24.364Z,13.45
2023-12-05T21:23:52.362Z,13.90
2023-12-05T21:26:19.036Z,14.85
2023-12-05T21:28:45.559Z,14.90
2023-12-05T21:31:12.211Z,14.27
2023-12-05T21:33:38.813Z,14.48
2023-12-05T21:36:05.927Z,14.50
2023-12-05T21:38:32.413Z,13.80
2023-12-05T21:40:59.319Z,14.18
2023-12-05T21:43:27.861Z,15.27
2023-12-05T21:45:57.242Z,14.07
2023-12-05T21:48:24.921Z,15.73
2023-12-05T21:50:51.496Z,14.98
2023-12-05T21:53:18.033Z,15.68
2023-12-05T21:55:44.780Z,15.38
2023-12-05T21:58:11.421Z,15.95
2023-12-05T22:00:38.079Z,15.40
2023-12-05T22:03:04.754Z,17.77
2023-12-05T22:05:31.356Z,17.02
2023-12-05T22:08:01.023Z,18.33
2023-12-05T22:10:27.547Z,17.67
2023-12-05T22:12:54.083Z,17.52
2023-12-05T22:15:20.655Z,17.27
2023-12-05T22:17:47.245Z,17.77
2023-12-05T22:20:13.837Z,15.43
2023-12-05T22:22:40.367Z,15.52
2023-12-05T22:25:07.778Z,14.73
2023-12-05T22:27:34.445Z,15.07
2023-12-05T22:30:01.126Z,13.50
2023-12-05T22:32:27.991Z,13.65
2023-12-05T22:34:54.597Z,13.20
2023-12-05T22:37:21.386Z,13.32
2023-12-05T22:39:48.245Z,13.40
2023-12-05T22:42:14.813Z,13.95
2023-12-05T22:44:44.401Z,13.82
2023-12-05T22:47:11.090Z,13.77
2023-12-05T22:49:37.737Z,13.73
2023-12-05T22:52:04.957Z,14.90
2023-12-05T22:54:31.528Z,13.57
2023-12-05T22:56:58.460Z,13.73
2023-12-05T22:59:25.018Z,15.05
2023-12-05T23:01:51.547Z,14.52
2023-12-05T23:04:18.214Z,14.57
2023-12-05T23:06:45.182Z,15.85
2023-12-05T23:09:11.804Z,17.52
2023-12-05T23:11:38.422Z,16.92
2023-12-05T23:14:04.986Z,18.25
2023-12-05T23:16:31.571Z,17.92
2023-12-05T23:18:58.145Z,17.85
2023-12-05T23:21:24.721Z,18.90
2023-12-05T23:23:51.222Z,18.42
2023-12-05T23:26:18.013Z,19.75
2023-12-05T23:28:44.755Z,19.88
2023-12-05T23:31:11.435Z,19.63
2023-12-05T23:33:38.052Z,18.50
2023-12-05T23:36:04.856Z,19.02
2023-12-05T23:38:31.505Z,19.60
2023-12-05T23:40:58.024Z,19.38
2023-12-05T23:43:24.578Z,20.17
2023-12-05T23:45:51.212Z,18.95
2023-12-05T23:48:17.910Z,20.90
2023-12-05T23:50:44.892Z,20.70
2023-12-05T23:53:11.381Z,21.45
2023-12-05T23:55:37.874Z,21.75
2023-12-05T23:58:04.508Z,21.63
